sensor_id;sensor_type;location;lat;lon;timestamp;P1;durP1;ratioP1;P2;durP2;ratioP2
56824;SDS011;42705;50.326;18.772;2024-02-16T00:04:05;32.30;;;17.40;;
56824;SDS011;42705;50.326;18.772;2024-02-16T00:09:29;37.70;;;18.90;;
56824;SDS011;42705;50.326;18.772;2024-02-16T00:14:51;36.20;;;18.60;;
56824;SDS011;42705;50.326;18.772;2024-02-16T00:20:13;35.40;;;17.70;;
56824;SDS011;42705;50.326;18.772;2024-02-16T00:25:35;34.40;;;17.60;;
56824;SDS011;42705;50.326;18.772;2024-02-16T00:30:57;26.10;;;14.40;;
56824;SDS011;42705;50.326;18.772;2024-02-16T00:36:19;30.80;;;16.80;;
56824;SDS011;42705;50.326;18.772;2024-02-16T00:41:41;25.80;;;13.40;;
56824;SDS011;42705;50.326;18.772;2024-02-16T00:47:03;28.80;;;14.40;;
56824;SDS011;42705;50.326;18.772;2024-02-16T00:52:27;23.80;;;11.70;;
56824;SDS011;42705;50.326;18.772;2024-02-16T00:57:49;26.10;;;11.80;;
56824;SDS011;42705;50.326;18.772;2024-02-16T01:03:11;23.70;;;11.60;;
56824;SDS011;42705;50.326;18.772;2024-02-16T01:08:34;21.00;;;10.10;;
56824;SDS011;42705;50.326;18.772;2024-02-16T01:13:56;17.70;;;10.10;;
56824;SDS011;42705;50.326;18.772;2024-02-16T01:19:18;17.60;;;9.60;;
56824;SDS011;42705;50.326;18.772;2024-02-16T01:24:40;18.50;;;8.70;;
56824;SDS011;42705;50.326;18.772;2024-02-16T01:30:02;15.50;;;8.30;;
56824;SDS011;42705;50.326;18.772;2024-02-16T01:35:24;17.60;;;9.00;;
56824;SDS011;42705;50.326;18.772;2024-02-16T01:40:46;18.40;;;9.10;;
56824;SDS011;42705;50.326;18.772;2024-02-16T01:46:09;19.50;;;9.40;;
56824;SDS011;42705;50.326;18.772;2024-02-16T01:51:31;15.80;;;8.40;;
56824;SDS011;42705;50.326;18.772;2024-02-16T01:56:54;16.00;;;8.00;;
56824;SDS011;42705;50.326;18.772;2024-02-16T02:02:17;13.60;;;7.80;;
56824;SDS011;42705;50.326;18.772;2024-02-16T02:07:38;16.70;;;8.40;;
56824;SDS011;42705;50.326;18.772;2024-02-16T02:13:00;16.00;;;9.20;;
56824;SDS011;42705;50.326;18.772;2024-02-16T02:18:22;15.60;;;8.10;;
56824;SDS011;42705;50.326;18.772;2024-02-16T02:23:46;13.00;;;7.90;;
56824;SDS011;42705;50.326;18.772;2024-02-16T02:29:08;13.90;;;7.70;;
56824;SDS011;42705;50.326;18.772;2024-02-16T02:34:30;16.60;;;8.70;;
56824;SDS011;42705;50.326;18.772;2024-02-16T02:39:52;15.90;;;10.60;;
56824;SDS011;42705;50.326;18.772;2024-02-16T02:45:14;17.30;;;10.30;;
56824;SDS011;42705;50.326;18.772;2024-02-16T02:50:36;24.00;;;12.20;;
56824;SDS011;42705;50.326;18.772;2024-02-16T02:55:58;22.20;;;12.70;;
56824;SDS011;42705;50.326;18.772;2024-02-16T03:01:20;20.80;;;12.20;;
56824;SDS011;42705;50.326;18.772;2024-02-16T03:06:42;24.70;;;14.70;;
56824;SDS011;42705;50.326;18.772;2024-02-16T03:12:04;25.70;;;15.50;;
56824;SDS011;42705;50.326;18.772;2024-02-16T03:17:30;26.70;;;15.60;;
56824;SDS011;42705;50.326;18.772;2024-02-16T03:22:52;30.40;;;17.10;;
56824;SDS011;42705;50.326;18.772;2024-02-16T03:28:14;38.00;;;21.30;;
56824;SDS011;42705;50.326;18.772;2024-02-16T03:33:37;34.90;;;20.70;;
56824;SDS011;42705;50.326;18.772;2024-02-16T03:38:58;35.00;;;20.30;;
56824;SDS011;42705;50.326;18.772;2024-02-16T03:44:20;32.40;;;18.70;;
56824;SDS011;42705;50.326;18.772;2024-02-16T03:49:43;35.70;;;19.60;;
56824;SDS011;42705;50.326;18.772;2024-02-16T03:55:05;36.70;;;22.10;;
56824;SDS011;42705;50.326;18.772;2024-02-16T04:00:27;41.30;;;24.30;;
56824;SDS011;42705;50.326;18.772;2024-02-16T04:05:49;42.00;;;24.70;;
56824;SDS011;42705;50.326;18.772;2024-02-16T04:11:11;46.50;;;24.20;;
56824;SDS011;42705;50.326;18.772;2024-02-16T04:16:34;39.80;;;23.20;;
56824;SDS011;42705;50.326;18.772;2024-02-16T04:21:56;38.10;;;23.60;;
56824;SDS011;42705;50.326;18.772;2024-02-16T04:27:18;40.80;;;23.80;;
56824;SDS011;42705;50.326;18.772;2024-02-16T04:32:40;36.60;;;22.00;;
56824;SDS011;42705;50.326;18.772;2024-02-16T04:38:02;41.20;;;23.30;;
56824;SDS011;42705;50.326;18.772;2024-02-16T04:43:24;44.00;;;25.70;;
56824;SDS011;42705;50.326;18.772;2024-02-16T04:48:46;42.10;;;23.00;;
56824;SDS011;42705;50.326;18.772;2024-02-16T04:54:09;43.20;;;24.70;;
56824;SDS011;42705;50.326;18.772;2024-02-16T04:59:31;42.70;;;25.90;;
56824;SDS011;42705;50.326;18.772;2024-02-16T05:04:53;41.10;;;25.10;;
56824;SDS011;42705;50.326;18.772;2024-02-16T05:10:15;41.30;;;25.50;;
56824;SDS011;42705;50.326;18.772;2024-02-16T05:15:38;39.00;;;23.70;;
56824;SDS011;42705;50.326;18.772;2024-02-16T05:21:00;40.30;;;24.80;;
56824;SDS011;42705;50.326;18.772;2024-02-16T05:26:22;39.20;;;24.40;;
56824;SDS011;42705;50.326;18.772;2024-02-16T05:31:44;37.50;;;23.20;;
56824;SDS011;42705;50.326;18.772;2024-02-16T05:37:06;41.00;;;24.40;;
56824;SDS011;42705;50.326;18.772;2024-02-16T05:42:28;43.20;;;26.10;;
56824;SDS011;42705;50.326;18.772;2024-02-16T05:47:50;36.90;;;23.90;;
56824;SDS011;42705;50.326;18.772;2024-02-16T05:53:12;35.00;;;23.30;;
56824;SDS011;42705;50.326;18.772;2024-02-16T05:58:34;48.10;;;28.30;;
56824;SDS011;42705;50.326;18.772;2024-02-16T06:03:56;39.20;;;24.50;;
56824;SDS011;42705;50.326;18.772;2024-02-16T06:09:18;38.90;;;25.20;;
56824;SDS011;42705;50.326;18.772;2024-02-16T06:14:40;48.00;;;24.90;;
56824;SDS011;42705;50.326;18.772;2024-02-16T06:20:03;48.90;;;26.70;;
56824;SDS011;42705;50.326;18.772;2024-02-16T06:25:26;36.70;;;20.30;;
56824;SDS011;42705;50.326;18.772;2024-02-16T06:30:48;42.00;;;23.60;;
56824;SDS011;42705;50.326;18.772;2024-02-16T06:36:10;47.70;;;26.00;;
56824;SDS011;42705;50.326;18.772;2024-02-16T06:41:32;40.30;;;25.00;;
56824;SDS011;42705;50.326;18.772;2024-02-16T06:46:54;45.10;;;26.50;;
56824;SDS011;42705;50.326;18.772;2024-02-16T06:52:16;45.90;;;25.40;;
56824;SDS011;42705;50.326;18.772;2024-02-16T06:57:38;41.60;;;25.30;;
56824;SDS011;42705;50.326;18.772;2024-02-16T07:03:00;39.70;;;25.50;;
56824;SDS011;42705;50.326;18.772;2024-02-16T07:08:23;45.80;;;24.80;;
56824;SDS011;42705;50.326;18.772;2024-02-16T07:13:45;41.20;;;24.80;;
56824;SDS011;42705;50.326;18.772;2024-02-16T07:19:08;43.50;;;25.00;;
56824;SDS011;42705;50.326;18.772;2024-02-16T07:24:30;36.20;;;21.80;;
56824;SDS011;42705;50.326;18.772;2024-02-16T07:29:52;42.40;;;22.40;;
56824;SDS011;42705;50.326;18.772;2024-02-16T07:35:15;34.60;;;20.70;;
56824;SDS011;42705;50.326;18.772;2024-02-16T07:40:36;37.60;;;20.20;;
56824;SDS011;42705;50.326;18.772;2024-02-16T07:45:58;33.90;;;19.60;;
56824;SDS011;42705;50.326;18.772;2024-02-16T07:51:20;37.90;;;22.40;;
56824;SDS011;42705;50.326;18.772;2024-02-16T07:56:43;35.60;;;19.90;;
56824;SDS011;42705;50.326;18.772;2024-02-16T08:02:05;32.50;;;19.40;;
56824;SDS011;42705;50.326;18.772;2024-02-16T08:07:27;30.10;;;18.30;;
56824;SDS011;42705;50.326;18.772;2024-02-16T08:12:49;31.20;;;19.40;;
56824;SDS011;42705;50.326;18.772;2024-02-16T08:18:12;30.30;;;18.40;;
56824;SDS011;42705;50.326;18.772;2024-02-16T08:23:34;34.70;;;19.50;;
56824;SDS011;42705;50.326;18.772;2024-02-16T08:28:56;33.00;;;17.70;;
56824;SDS011;42705;50.326;18.772;2024-02-16T08:34:19;35.00;;;20.80;;
56824;SDS011;42705;50.326;18.772;2024-02-16T08:39:41;29.20;;;17.10;;
56824;SDS011;42705;50.326;18.772;2024-02-16T08:45:03;35.70;;;18.70;;
56824;SDS011;42705;50.326;18.772;2024-02-16T08:50:25;31.50;;;16.00;;
56824;SDS011;42705;50.326;18.772;2024-02-16T08:55:47;25.90;;;14.80;;
56824;SDS011;42705;50.326;18.772;2024-02-16T09:01:09;19.80;;;12.20;;
56824;SDS011;42705;50.326;18.772;2024-02-16T09:06:31;24.60;;;14.00;;
56824;SDS011;42705;50.326;18.772;2024-02-16T09:11:53;21.40;;;12.10;;
56824;SDS011;42705;50.326;18.772;2024-02-16T09:17:14;22.00;;;12.10;;
56824;SDS011;42705;50.326;18.772;2024-02-16T09:22:38;20.70;;;11.90;;
56824;SDS011;42705;50.326;18.772;2024-02-16T09:28:02;23.30;;;10.10;;
56824;SDS011;42705;50.326;18.772;2024-02-16T09:33:24;16.80;;;9.70;;
56824;SDS011;42705;50.326;18.772;2024-02-16T09:38:48;17.50;;;8.90;;
56824;SDS011;42705;50.326;18.772;2024-02-16T09:44:10;16.80;;;10.40;;
56824;SDS011;42705;50.326;18.772;2024-02-16T09:49:33;18.70;;;11.30;;
56824;SDS011;42705;50.326;18.772;2024-02-16T09:54:54;20.80;;;9.90;;
56824;SDS011;42705;50.326;18.772;2024-02-16T10:00:17;12.20;;;6.40;;
56824;SDS011;42705;50.326;18.772;2024-02-16T10:05:39;10.20;;;5.00;;
56824;SDS011;42705;50.326;18.772;2024-02-16T10:11:02;10.10;;;5.30;;
56824;SDS011;42705;50.326;18.772;2024-02-16T10:16:25;10.70;;;5.60;;
56824;SDS011;42705;50.326;18.772;2024-02-16T10:21:49;11.70;;;5.30;;
56824;SDS011;42705;50.326;18.772;2024-02-16T10:27:14;9.20;;;5.40;;
56824;SDS011;42705;50.326;18.772;2024-02-16T10:32:40;9.30;;;5.80;;
56824;SDS011;42705;50.326;18.772;2024-02-16T10:38:02;10.00;;;5.10;;
56824;SDS011;42705;50.326;18.772;2024-02-16T10:43:27;14.40;;;6.00;;
56824;SDS011;42705;50.326;18.772;2024-02-16T10:48:51;13.60;;;4.60;;
56824;SDS011;42705;50.326;18.772;2024-02-16T10:54:15;8.60;;;4.60;;
56824;SDS011;42705;50.326;18.772;2024-02-16T10:59:43;8.00;;;4.80;;
56824;SDS011;42705;50.326;18.772;2024-02-16T11:05:07;7.30;;;4.70;;
56824;SDS011;42705;50.326;18.772;2024-02-16T11:10:30;10.90;;;5.30;;
56824;SDS011;42705;50.326;18.772;2024-02-16T11:15:56;12.30;;;5.30;;
56824;SDS011;42705;50.326;18.772;2024-02-16T11:21:22;11.10;;;5.40;;
56824;SDS011;42705;50.326;18.772;2024-02-16T11:26:44;14.20;;;6.00;;
56824;SDS011;42705;50.326;18.772;2024-02-16T11:32:07;11.50;;;5.60;;
56824;SDS011;42705;50.326;18.772;2024-02-16T11:37:30;9.30;;;5.10;;
56824;SDS011;42705;50.326;18.772;2024-02-16T11:42:57;8.20;;;4.80;;
56824;SDS011;42705;50.326;18.772;2024-02-16T11:48:23;8.30;;;4.70;;
56824;SDS011;42705;50.326;18.772;2024-02-16T11:53:54;10.40;;;4.70;;
56824;SDS011;42705;50.326;18.772;2024-02-16T11:59:18;10.30;;;4.40;;
56824;SDS011;42705;50.326;18.772;2024-02-16T12:04:41;8.10;;;4.30;;
56824;SDS011;42705;50.326;18.772;2024-02-16T12:10:03;9.50;;;4.20;;
56824;SDS011;42705;50.326;18.772;2024-02-16T12:15:29;7.80;;;4.10;;
56824;SDS011;42705;50.326;18.772;2024-02-16T12:21:02;6.90;;;3.80;;
56824;SDS011;42705;50.326;18.772;2024-02-16T12:26:26;6.70;;;3.40;;
56824;SDS011;42705;50.326;18.772;2024-02-16T12:31:48;4.20;;;3.50;;
56824;SDS011;42705;50.326;18.772;2024-02-16T12:37:11;6.20;;;3.70;;
56824;SDS011;42705;50.326;18.772;2024-02-16T12:42:32;7.70;;;3.70;;
56824;SDS011;42705;50.326;18.772;2024-02-16T12:47:55;7.20;;;3.50;;
56824;SDS011;42705;50.326;18.772;2024-02-16T12:53:17;4.50;;;3.30;;
56824;SDS011;42705;50.326;18.772;2024-02-16T12:58:38;5.00;;;3.30;;
56824;SDS011;42705;50.326;18.772;2024-02-16T13:04:01;4.80;;;3.20;;
56824;SDS011;42705;50.326;18.772;2024-02-16T13:09:23;4.10;;;3.40;;
56824;SDS011;42705;50.326;18.772;2024-02-16T13:14:45;5.50;;;3.80;;
56824;SDS011;42705;50.326;18.772;2024-02-16T13:20:07;3.40;;;3.10;;
56824;SDS011;42705;50.326;18.772;2024-02-16T13:25:31;5.20;;;2.70;;
56824;SDS011;42705;50.326;18.772;2024-02-16T13:30:52;4.00;;;2.80;;
56824;SDS011;42705;50.326;18.772;2024-02-16T13:36:14;3.70;;;3.00;;
56824;SDS011;42705;50.326;18.772;2024-02-16T13:41:36;3.90;;;3.30;;
56824;SDS011;42705;50.326;18.772;2024-02-16T13:46:58;9.10;;;3.40;;
56824;SDS011;42705;50.326;18.772;2024-02-16T13:52:20;4.20;;;3.20;;
56824;SDS011;42705;50.326;18.772;2024-02-16T13:57:42;3.80;;;2.90;;
56824;SDS011;42705;50.326;18.772;2024-02-16T14:03:04;5.20;;;3.30;;
56824;SDS011;42705;50.326;18.772;2024-02-16T14:08:30;3.60;;;2.90;;
56824;SDS011;42705;50.326;18.772;2024-02-16T14:13:52;3.20;;;2.90;;
56824;SDS011;42705;50.326;18.772;2024-02-16T14:19:14;6.10;;;3.10;;
56824;SDS011;42705;50.326;18.772;2024-02-16T14:24:36;7.70;;;3.80;;
56824;SDS011;42705;50.326;18.772;2024-02-16T14:29:58;6.60;;;3.50;;
56824;SDS011;42705;50.326;18.772;2024-02-16T14:35:21;7.60;;;3.90;;
56824;SDS011;42705;50.326;18.772;2024-02-16T14:40:43;3.90;;;3.20;;
56824;SDS011;42705;50.326;18.772;2024-02-16T14:46:06;6.30;;;3.30;;
56824;SDS011;42705;50.326;18.772;2024-02-16T14:51:29;5.50;;;3.20;;
56824;SDS011;42705;50.326;18.772;2024-02-16T14:56:51;8.70;;;3.40;;
56824;SDS011;42705;50.326;18.772;2024-02-16T15:02:16;9.40;;;3.50;;
56824;SDS011;42705;50.326;18.772;2024-02-16T15:07:38;7.20;;;4.00;;
56824;SDS011;42705;50.326;18.772;2024-02-16T15:13:00;6.10;;;3.60;;
56824;SDS011;42705;50.326;18.772;2024-02-16T15:18:22;6.30;;;3.80;;
56824;SDS011;42705;50.326;18.772;2024-02-16T15:23:44;7.80;;;3.50;;
56824;SDS011;42705;50.326;18.772;2024-02-16T15:29:07;7.20;;;4.30;;
56824;SDS011;42705;50.326;18.772;2024-02-16T15:34:29;7.40;;;3.90;;
56824;SDS011;42705;50.326;18.772;2024-02-16T15:39:51;8.80;;;5.20;;
56824;SDS011;42705;50.326;18.772;2024-02-16T15:45:18;8.20;;;4.00;;
56824;SDS011;42705;50.326;18.772;2024-02-16T15:50:40;8.90;;;5.00;;
56824;SDS011;42705;50.326;18.772;2024-02-16T15:56:02;7.70;;;4.30;;
56824;SDS011;42705;50.326;18.772;2024-02-16T16:01:26;9.60;;;4.80;;
56824;SDS011;42705;50.326;18.772;2024-02-16T16:06:53;13.90;;;7.00;;
56824;SDS011;42705;50.326;18.772;2024-02-16T16:12:16;18.20;;;9.30;;
56824;SDS011;42705;50.326;18.772;2024-02-16T16:17:38;18.60;;;9.20;;
56824;SDS011;42705;50.326;18.772;2024-02-16T16:23:00;22.70;;;10.10;;
56824;SDS011;42705;50.326;18.772;2024-02-16T16:28:25;16.40;;;8.20;;
56824;SDS011;42705;50.326;18.772;2024-02-16T16:39:09;18.80;;;8.90;;
56824;SDS011;42705;50.326;18.772;2024-02-16T16:44:31;20.30;;;10.10;;
56824;SDS011;42705;50.326;18.772;2024-02-16T16:49:53;24.10;;;10.30;;
56824;SDS011;42705;50.326;18.772;2024-02-16T16:55:17;22.00;;;10.50;;
56824;SDS011;42705;50.326;18.772;2024-02-16T17:00:59;23.00;;;10.70;;
56824;SDS011;42705;50.326;18.772;2024-02-16T17:06:22;34.10;;;14.00;;
56824;SDS011;42705;50.326;18.772;2024-02-16T17:11:44;33.60;;;15.30;;
56824;SDS011;42705;50.326;18.772;2024-02-16T17:17:06;27.00;;;12.50;;
56824;SDS011;42705;50.326;18.772;2024-02-16T17:22:28;26.70;;;12.80;;
56824;SDS011;42705;50.326;18.772;2024-02-16T17:27:50;25.10;;;12.60;;
56824;SDS011;42705;50.326;18.772;2024-02-16T17:33:12;24.70;;;12.10;;
56824;SDS011;42705;50.326;18.772;2024-02-16T17:38:35;31.30;;;13.10;;
56824;SDS011;42705;50.326;18.772;2024-02-16T17:43:57;28.80;;;12.30;;
56824;SDS011;42705;50.326;18.772;2024-02-16T17:49:20;29.60;;;14.20;;
56824;SDS011;42705;50.326;18.772;2024-02-16T17:54:44;29.00;;;14.40;;
56824;SDS011;42705;50.326;18.772;2024-02-16T18:00:06;28.50;;;14.10;;
56824;SDS011;42705;50.326;18.772;2024-02-16T18:05:28;34.10;;;17.10;;
56824;SDS011;42705;50.326;18.772;2024-02-16T18:10:50;45.20;;;19.10;;
56824;SDS011;42705;50.326;18.772;2024-02-16T18:16:14;38.90;;;18.60;;
56824;SDS011;42705;50.326;18.772;2024-02-16T18:21:38;44.40;;;19.60;;
56824;SDS011;42705;50.326;18.772;2024-02-16T18:27:01;42.50;;;19.30;;
56824;SDS011;42705;50.326;18.772;2024-02-16T18:32:24;39.00;;;19.20;;
56824;SDS011;42705;50.326;18.772;2024-02-16T18:37:45;32.50;;;17.50;;
56824;SDS011;42705;50.326;18.772;2024-02-16T18:43:07;36.60;;;17.90;;
56824;SDS011;42705;50.326;18.772;2024-02-16T18:48:29;37.80;;;18.40;;
56824;SDS011;42705;50.326;18.772;2024-02-16T18:53:52;39.40;;;18.70;;
56824;SDS011;42705;50.326;18.772;2024-02-16T18:59:15;38.30;;;15.90;;
56824;SDS011;42705;50.326;18.772;2024-02-16T19:04:37;28.40;;;14.40;;
56824;SDS011;42705;50.326;18.772;2024-02-16T19:09:59;38.00;;;15.70;;
56824;SDS011;42705;50.326;18.772;2024-02-16T19:15:21;28.70;;;13.50;;
56824;SDS011;42705;50.326;18.772;2024-02-16T19:20:47;25.80;;;12.80;;
56824;SDS011;42705;50.326;18.772;2024-02-16T19:26:12;28.20;;;13.30;;
56824;SDS011;42705;50.326;18.772;2024-02-16T19:31:34;20.30;;;11.10;;
56824;SDS011;42705;50.326;18.772;2024-02-16T19:36:56;17.60;;;10.20;;
56824;SDS011;42705;50.326;18.772;2024-02-16T19:42:19;16.50;;;9.10;;
56824;SDS011;42705;50.326;18.772;2024-02-16T19:47:44;20.60;;;10.30;;
56824;SDS011;42705;50.326;18.772;2024-02-16T19:58:31;20.10;;;9.50;;
56824;SDS011;42705;50.326;18.772;2024-02-16T20:03:54;20.30;;;10.00;;
56824;SDS011;42705;50.326;18.772;2024-02-16T20:09:16;18.00;;;9.70;;
56824;SDS011;42705;50.326;18.772;2024-02-16T20:14:39;18.90;;;8.80;;
56824;SDS011;42705;50.326;18.772;2024-02-16T20:20:04;14.00;;;8.50;;
56824;SDS011;42705;50.326;18.772;2024-02-16T20:30:49;18.20;;;8.30;;
56824;SDS011;42705;50.326;18.772;2024-02-16T20:36:11;13.60;;;7.30;;
56824;SDS011;42705;50.326;18.772;2024-02-16T20:41:33;17.70;;;7.90;;
56824;SDS011;42705;50.326;18.772;2024-02-16T20:46:55;13.10;;;7.40;;
56824;SDS011;42705;50.326;18.772;2024-02-16T20:52:18;15.00;;;8.40;;
56824;SDS011;42705;50.326;18.772;2024-02-16T20:57:40;12.70;;;6.40;;
56824;SDS011;42705;50.326;18.772;2024-02-16T21:03:02;13.30;;;7.30;;
56824;SDS011;42705;50.326;18.772;2024-02-16T21:08:24;14.40;;;6.80;;
56824;SDS011;42705;50.326;18.772;2024-02-16T21:13:47;15.00;;;7.80;;
56824;SDS011;42705;50.326;18.772;2024-02-16T21:19:09;15.10;;;8.50;;
56824;SDS011;42705;50.326;18.772;2024-02-16T21:24:31;15.90;;;8.30;;
56824;SDS011;42705;50.326;18.772;2024-02-16T21:29:53;16.80;;;8.50;;
56824;SDS011;42705;50.326;18.772;2024-02-16T21:35:15;11.70;;;7.00;;
56824;SDS011;42705;50.326;18.772;2024-02-16T21:40:43;17.20;;;7.50;;
56824;SDS011;42705;50.326;18.772;2024-02-16T21:46:06;11.80;;;7.30;;
56824;SDS011;42705;50.326;18.772;2024-02-16T21:51:29;12.60;;;7.60;;
56824;SDS011;42705;50.326;18.772;2024-02-16T21:56:52;12.70;;;7.50;;
56824;SDS011;42705;50.326;18.772;2024-02-16T22:02:14;12.70;;;7.80;;
56824;SDS011;42705;50.326;18.772;2024-02-16T22:07:36;12.10;;;7.50;;
56824;SDS011;42705;50.326;18.772;2024-02-16T22:12:58;12.90;;;7.70;;
56824;SDS011;42705;50.326;18.772;2024-02-16T22:18:20;16.40;;;8.00;;
56824;SDS011;42705;50.326;18.772;2024-02-16T22:23:43;17.80;;;9.10;;
56824;SDS011;42705;50.326;18.772;2024-02-16T22:29:04;12.20;;;7.50;;
56824;SDS011;42705;50.326;18.772;2024-02-16T22:34:26;16.60;;;9.20;;
56824;SDS011;42705;50.326;18.772;2024-02-16T22:39:48;12.80;;;8.40;;
56824;SDS011;42705;50.326;18.772;2024-02-16T22:45:12;14.80;;;7.90;;
56824;SDS011;42705;50.326;18.772;2024-02-16T22:50:35;13.30;;;8.20;;
56824;SDS011;42705;50.326;18.772;2024-02-16T22:55:57;12.90;;;8.20;;
56824;SDS011;42705;50.326;18.772;2024-02-16T23:01:19;13.70;;;8.30;;
56824;SDS011;42705;50.326;18.772;2024-02-16T23:06:41;12.10;;;8.40;;
56824;SDS011;42705;50.326;18.772;2024-02-16T23:12:03;14.10;;;8.40;;
56824;SDS011;42705;50.326;18.772;2024-02-16T23:17:25;18.00;;;9.50;;
56824;SDS011;42705;50.326;18.772;2024-02-16T23:23:03;13.40;;;8.70;;
56824;SDS011;42705;50.326;18.772;2024-02-16T23:28:27;12.40;;;7.30;;
56824;SDS011;42705;50.326;18.772;2024-02-16T23:33:50;14.10;;;8.60;;
56824;SDS011;42705;50.326;18.772;2024-02-16T23:39:12;16.20;;;8.40;;
56824;SDS011;42705;50.326;18.772;2024-02-16T23:44:34;16.10;;;8.70;;
56824;SDS011;42705;50.326;18.772;2024-02-16T23:49:56;16.00;;;8.70;;
56824;SDS011;42705;50.326;18.772;2024-02-16T23:55:18;13.90;;;8.70;;
